createdAt,value
2019-05-09T00:01:29.317Z,96743.00
2019-05-09T00:03:58.633Z,96741.00
2019-05-09T00:06:28.220Z,96736.00
2019-05-09T00:08:57.624Z,96730.00
2019-05-09T00:11:26.932Z,96745.00
2019-05-09T00:13:56.533Z,96735.00
2019-05-09T00:16:25.837Z,96729.00
2019-05-09T00:18:55.444Z,96734.00
2019-05-09T00:21:26.381Z,96727.00
2019-05-09T00:23:55.989Z,96725.00
2019-05-09T00:26:25.292Z,96733.00
2019-05-09T00:28:56.537Z,96735.00
2019-05-09T00:31:27.481Z,96735.00
2019-05-09T00:33:58.428Z,96739.00
2019-05-09T00:36:27.733Z,96730.00
2019-05-09T00:38:57.031Z,96733.00
2019-05-09T00:41:26.341Z,96722.00
2019-05-09T00:43:57.278Z,96725.00
2019-05-09T00:46:28.225Z,96716.00
2019-05-09T00:48:59.170Z,96722.00
2019-05-09T00:51:28.836Z,96722.00
2019-05-09T00:53:58.136Z,96709.00
2019-05-09T00:56:27.440Z,96711.00
2019-05-09T00:58:56.737Z,96703.00
2019-05-09T01:01:26.049Z,96713.00
2019-05-09T01:03:55.345Z,96711.00
2019-05-09T01:06:24.653Z,96711.00
2019-05-09T01:08:54.026Z,96714.00
2019-05-09T01:11:24.357Z,96714.00
2019-05-09T01:13:54.677Z,96713.00
2019-05-09T01:16:24.404Z,96710.00
2019-05-09T01:18:54.725Z,96709.00
2019-05-09T01:21:24.444Z,96702.00
2019-05-09T01:23:54.251Z,96715.00
2019-05-09T01:26:24.370Z,96717.00
2019-05-09T01:28:54.314Z,96716.00
2019-05-09T01:31:24.324Z,96708.00
2019-05-09T01:33:58.230Z,96706.00
2019-05-09T01:36:29.184Z,96701.00
2019-05-09T01:38:58.490Z,96710.00
2019-05-09T01:41:31.130Z,96725.00
2019-05-09T01:43:58.957Z,96717.00
2019-05-09T01:46:29.026Z,96707.00
2019-05-09T01:48:58.335Z,96719.00
2019-05-09T01:51:27.646Z,96710.00
2019-05-09T01:53:56.955Z,96714.00
2019-05-09T01:56:26.261Z,96713.00
2019-05-09T01:58:55.580Z,96709.00
2019-05-09T02:01:24.891Z,96706.00
2019-05-09T02:03:54.206Z,96700.00
2019-05-09T02:06:24.400Z,96707.00
2019-05-09T02:08:54.614Z,96701.00
2019-05-09T02:11:28.223Z,96704.00
2019-05-09T02:13:55.020Z,96705.00
2019-05-09T02:16:33.773Z,96713.00
2019-05-09T02:19:04.600Z,96714.00
2019-05-09T02:21:34.496Z,96722.00
2019-05-09T02:24:05.351Z,96711.00
2019-05-09T02:26:34.924Z,96708.00
2019-05-09T02:29:04.297Z,96712.00
2019-05-09T02:31:35.357Z,96709.00
2019-05-09T02:34:05.336Z,96700.00
2019-05-09T02:36:34.681Z,96710.00
2019-05-09T02:39:08.955Z,96693.00
2019-05-09T02:41:39.034Z,96701.00
2019-05-09T02:44:09.325Z,96695.00
2019-05-09T02:46:49.149Z,96694.00
2019-05-09T02:49:19.127Z,96691.00
2019-05-09T02:51:48.986Z,96682.00
2019-05-09T02:54:19.262Z,96690.00
2019-05-09T02:56:49.415Z,96698.00
2019-05-09T02:59:38.658Z,96683.00
2019-05-09T03:02:21.664Z,96685.00
2019-05-09T03:04:51.144Z,96681.00
2019-05-09T03:07:22.093Z,96687.00
2019-05-09T03:09:51.388Z,96683.00
2019-05-09T03:12:30.574Z,96689.00
2019-05-09T03:14:51.726Z,96678.00
2019-05-09T03:17:21.026Z,96687.00
2019-05-09T03:19:50.331Z,96702.00
2019-05-09T03:22:21.288Z,96686.00
2019-05-09T03:24:50.591Z,96700.00
2019-05-09T03:27:28.759Z,96699.00
2019-05-09T03:29:59.913Z,96685.00
2019-05-09T03:32:29.910Z,96690.00
2019-05-09T03:34:59.566Z,96693.00
2019-05-09T03:37:29.167Z,96689.00
2019-05-09T03:39:58.778Z,96697.00
2019-05-09T03:42:38.088Z,96691.00
2019-05-09T03:44:59.737Z,96682.00
2019-05-09T03:47:47.744Z,96676.00
2019-05-09T03:50:17.917Z,96684.00
2019-05-09T03:52:47.949Z,96678.00
2019-05-09T03:55:19.029Z,96687.00
2019-05-09T03:57:58.910Z,96683.00
2019-05-09T04:00:28.446Z,96686.00
2019-05-09T04:02:58.172Z,96679.00
2019-05-09T04:05:27.661Z,96672.00
2019-05-09T04:07:58.622Z,96665.00
2019-05-09T04:10:28.216Z,96661.00
2019-05-09T04:12:59.642Z,96662.00
2019-05-09T04:15:28.656Z,96674.00
2019-05-09T04:17:58.325Z,96672.00
2019-05-09T04:20:27.939Z,96674.00
2019-05-09T04:22:59.344Z,96675.00
2019-05-09T04:25:30.221Z,96674.00
2019-05-09T04:27:59.537Z,96670.00
2019-05-09T04:30:28.843Z,96659.00
2019-05-09T04:32:58.425Z,96675.00
2019-05-09T04:35:28.072Z,96674.00
2019-05-09T04:37:58.413Z,96673.00
2019-05-09T04:40:31.880Z,96674.00
2019-05-09T04:43:11.086Z,96669.00
2019-05-09T04:45:40.272Z,96662.00
2019-05-09T04:48:07.733Z,96666.00
2019-05-09T04:50:37.626Z,96666.00
2019-05-09T04:53:08.011Z,96668.00
2019-05-09T04:55:39.238Z,96664.00
2019-05-09T04:58:09.359Z,96663.00
2019-05-09T05:00:57.329Z,96657.00
2019-05-09T05:03:28.368Z,96645.00
2019-05-09T05:05:58.598Z,96655.00
2019-05-09T05:08:28.565Z,96652.00
2019-05-09T05:10:58.286Z,96653.00
2019-05-09T05:13:29.705Z,96655.00
2019-05-09T05:15:58.719Z,96644.00
2019-05-09T05:18:28.543Z,96658.00
2019-05-09T05:20:58.397Z,96666.00
2019-05-09T05:23:29.346Z,96662.00
2019-05-09T05:25:58.663Z,96653.00
2019-05-09T05:28:27.987Z,96660.00
2019-05-09T05:30:58.268Z,96667.00
2019-05-09T05:33:41.650Z,96658.00
2019-05-09T05:36:12.890Z,96649.00
2019-05-09T05:38:42.455Z,96657.00
2019-05-09T05:41:11.771Z,96651.00
2019-05-09T05:43:44.581Z,96649.00
2019-05-09T05:46:32.522Z,96647.00
2019-05-09T05:49:02.100Z,96653.00
2019-05-09T05:51:33.053Z,96652.00
2019-05-09T05:54:03.201Z,96645.00
2019-05-09T05:56:32.512Z,96647.00
2019-05-09T05:59:01.836Z,96642.00
2019-05-09T06:01:31.149Z,96644.00
2019-05-09T06:04:00.479Z,96648.00
2019-05-09T06:06:32.948Z,96633.00
2019-05-09T06:09:00.848Z,96635.00
2019-05-09T06:11:30.441Z,96641.00
2019-05-09T06:14:06.538Z,96636.00
2019-05-09T06:16:31.352Z,96633.00
2019-05-09T06:19:02.073Z,96642.00
2019-05-09T06:21:31.419Z,96636.00
2019-05-09T06:24:01.063Z,96634.00
2019-05-09T06:26:30.389Z,96647.00
2019-05-09T06:29:00.051Z,96646.00
2019-05-09T06:31:29.665Z,96642.00
2019-05-09T06:33:59.264Z,96646.00
2019-05-09T06:36:28.875Z,96645.00
2019-05-09T06:38:58.944Z,96639.00
2019-05-09T06:41:28.724Z,96642.00
2019-05-09T06:44:20.306Z,96642.00
2019-05-09T06:46:49.046Z,96648.00
2019-05-09T06:49:27.835Z,96649.00
2019-05-09T06:51:51.400Z,96643.00
2019-05-09T06:54:21.007Z,96647.00
2019-05-09T06:56:50.622Z,96647.00
2019-05-09T06:59:20.225Z,96648.00
2019-05-09T07:01:51.470Z,96648.00
2019-05-09T07:04:22.422Z,96633.00
2019-05-09T07:06:53.379Z,96631.00
2019-05-09T07:09:29.840Z,96643.00
2019-05-09T07:11:59.170Z,96631.00
2019-05-09T07:14:33.254Z,96626.00
2019-05-09T07:17:01.509Z,96626.00
2019-05-09T07:19:30.818Z,96630.00
2019-05-09T07:22:09.081Z,96629.00
2019-05-09T07:25:04.940Z,96625.00
2019-05-09T07:27:29.441Z,96612.00
2019-05-09T07:30:00.402Z,96604.00
2019-05-09T07:32:38.227Z,96605.00
2019-05-09T07:35:09.416Z,96604.00
2019-05-09T07:37:38.729Z,96609.00
2019-05-09T07:40:08.711Z,96600.00
2019-05-09T07:42:39.111Z,96605.00
2019-05-09T07:45:09.389Z,96601.00
2019-05-09T07:47:38.990Z,96613.00
2019-05-09T07:50:09.117Z,96606.00
2019-05-09T07:52:38.918Z,96591.00
2019-05-09T07:55:09.162Z,96592.00
2019-05-09T07:57:46.568Z,96599.00
2019-05-09T08:00:10.608Z,96581.00
2019-05-09T08:02:40.222Z,96591.00
2019-05-09T08:05:11.230Z,96588.00
2019-05-09T08:07:40.574Z,96597.00
2019-05-09T08:10:11.284Z,96606.00
2019-05-09T08:12:40.765Z,96604.00
2019-05-09T08:15:16.363Z,96608.00
2019-05-09T08:17:41.240Z,96617.00
2019-05-09T08:20:13.726Z,96619.00
2019-05-09T08:22:49.583Z,96618.00
2019-05-09T08:25:12.834Z,96621.00
2019-05-09T08:27:42.138Z,96636.00
2019-05-09T08:30:11.658Z,96642.00
2019-05-09T08:32:40.985Z,96639.00
2019-05-09T08:35:10.517Z,96642.00
2019-05-09T08:37:39.823Z,96644.00
2019-05-09T08:40:09.589Z,96628.00
2019-05-09T08:42:38.916Z,96630.00
2019-05-09T08:45:24.137Z,96625.00
2019-05-09T08:47:39.585Z,96637.00
2019-05-09T08:50:17.663Z,96637.00
2019-05-09T08:52:48.161Z,96641.00
2019-05-09T08:55:17.643Z,96649.00
2019-05-09T08:57:48.163Z,96642.00
2019-05-09T09:00:18.942Z,96646.00
2019-05-09T09:02:48.438Z,96640.00
2019-05-09T09:05:18.689Z,96641.00
2019-05-09T09:07:49.180Z,96645.00
2019-05-09T09:10:18.894Z,96657.00
2019-05-09T09:12:48.176Z,96652.00
2019-05-09T09:15:18.115Z,96645.00
2019-05-09T09:17:49.101Z,96650.00
2019-05-09T09:20:18.724Z,96646.00
2019-05-09T09:22:48.223Z,96638.00
2019-05-09T09:25:18.342Z,96630.00
2019-05-09T09:27:50.986Z,96628.00
2019-05-09T09:30:24.853Z,96627.00
2019-05-09T09:32:50.840Z,96620.00
2019-05-09T09:35:20.106Z,96624.00
2019-05-09T09:37:52.151Z,96621.00
2019-05-09T09:40:20.686Z,96627.00
2019-05-09T09:42:50.297Z,96603.00
2019-05-09T09:45:19.900Z,96611.00
2019-05-09T09:47:49.162Z,96615.00
2019-05-09T09:50:18.434Z,96593.00
2019-05-09T09:52:49.117Z,96597.00
2019-05-09T09:55:18.649Z,96592.00
2019-05-09T09:57:48.572Z,96595.00
2019-05-09T10:00:39.159Z,96592.00
2019-05-09T10:03:08.762Z,96584.00
2019-05-09T10:05:38.409Z,96589.00
2019-05-09T10:08:11.697Z,96575.00
2019-05-09T10:10:39.328Z,96578.00
2019-05-09T10:13:10.743Z,96581.00
2019-05-09T10:15:47.546Z,96571.00
2019-05-09T10:18:18.437Z,96575.00
2019-05-09T10:20:49.332Z,96569.00
2019-05-09T10:23:21.426Z,96570.00
2019-05-09T10:25:49.599Z,96556.00
2019-05-09T10:28:21.321Z,96555.00
2019-05-09T10:30:49.890Z,96564.00
2019-05-09T10:33:19.159Z,96563.00
2019-05-09T10:35:48.524Z,96551.00
2019-05-09T10:38:18.512Z,96544.00
2019-05-09T10:40:48.728Z,96543.00
2019-05-09T10:43:34.547Z,96544.00
2019-05-09T10:46:08.633Z,96548.00
2019-05-09T10:48:38.665Z,96542.00
2019-05-09T10:51:10.453Z,96558.00
2019-05-09T10:53:38.977Z,96535.00
2019-05-09T10:56:08.894Z,96543.00
2019-05-09T10:58:38.381Z,96529.00
2019-05-09T11:01:09.094Z,96541.00
2019-05-09T11:03:38.577Z,96523.00
2019-05-09T11:06:08.540Z,96523.00
2019-05-09T11:08:38.243Z,96518.00
2019-05-09T11:11:09.506Z,96530.00
2019-05-09T11:13:39.102Z,96534.00
2019-05-09T11:16:08.425Z,96528.00
2019-05-09T11:18:37.754Z,96531.00
2019-05-09T11:21:08.459Z,96545.00
2019-05-09T11:23:39.298Z,96555.00
2019-05-09T11:26:08.721Z,96551.00
2019-05-09T11:28:37.988Z,96543.00
2019-05-09T11:31:08.167Z,96549.00
2019-05-09T11:33:38.554Z,96542.00
2019-05-09T11:36:09.783Z,96566.00
2019-05-09T11:38:43.789Z,96564.00
2019-05-09T11:41:10.093Z,96562.00
2019-05-09T11:43:39.369Z,96574.00
2019-05-09T11:46:10.466Z,96596.00
2019-05-09T11:48:39.667Z,96562.00
2019-05-09T11:51:09.107Z,96581.00
2019-05-09T11:53:40.149Z,96580.00
2019-05-09T11:56:09.381Z,96589.00
2019-05-09T11:58:58.201Z,96577.00
2019-05-09T12:01:29.207Z,96586.00
2019-05-09T12:03:58.798Z,96588.00
2019-05-09T12:06:28.933Z,96583.00
2019-05-09T12:08:59.220Z,96591.00
2019-05-09T12:11:29.350Z,96579.00
2019-05-09T12:13:58.593Z,96573.00
2019-05-09T12:16:28.148Z,96581.00
2019-05-09T12:18:58.478Z,96568.00
2019-05-09T12:21:28.739Z,96573.00
2019-05-09T12:23:58.495Z,96577.00
2019-05-09T12:26:29.204Z,96572.00
2019-05-09T12:28:58.761Z,96573.00
2019-05-09T12:31:29.098Z,96579.00
2019-05-09T12:33:59.181Z,96577.00
2019-05-09T12:36:29.058Z,96560.00
2019-05-09T12:38:59.205Z,96545.00
2019-05-09T12:41:31.443Z,96558.00
2019-05-09T12:43:59.753Z,96555.00
2019-05-09T12:46:29.019Z,96555.00
2019-05-09T12:48:59.120Z,96557.00
2019-05-09T12:51:28.843Z,96561.00
2019-05-09T12:53:58.283Z,96571.00
2019-05-09T12:56:28.431Z,96564.00
2019-05-09T12:58:58.222Z,96573.00
2019-05-09T13:01:27.534Z,96567.00
2019-05-09T13:03:58.259Z,96563.00
2019-05-09T13:06:29.235Z,96566.00
2019-05-09T13:08:58.880Z,96573.00
2019-05-09T13:11:28.262Z,96575.00
2019-05-09T13:13:57.562Z,96581.00
2019-05-09T13:16:44.152Z,96577.00
2019-05-09T13:19:13.113Z,96591.00
2019-05-09T13:21:42.386Z,96604.00
2019-05-09T13:24:11.990Z,96587.00
2019-05-09T13:26:42.835Z,96594.00
2019-05-09T13:29:12.103Z,96593.00
2019-05-09T13:31:41.367Z,96594.00
2019-05-09T13:34:10.937Z,96608.00
2019-05-09T13:36:40.458Z,96602.00
2019-05-09T13:39:10.788Z,96602.00
2019-05-09T13:41:42.405Z,96617.00
2019-05-09T13:44:13.826Z,96614.00
2019-05-09T13:46:43.173Z,96602.00
2019-05-09T13:49:15.503Z,96627.00
2019-05-09T13:51:51.882Z,96616.00
2019-05-09T13:54:14.808Z,96621.00
2019-05-09T13:56:44.130Z,96619.00
2019-05-09T13:59:13.387Z,96612.00
2019-05-09T14:01:42.988Z,96624.00
2019-05-09T14:04:12.586Z,96629.00
2019-05-09T14:06:42.181Z,96617.00
2019-05-09T14:09:11.511Z,96623.00
2019-05-09T14:11:41.094Z,96621.00
2019-05-09T14:14:10.707Z,96638.00
2019-05-09T14:16:39.979Z,96634.00
2019-05-09T14:19:29.795Z,96619.00
2019-05-09T14:21:40.852Z,96623.00
2019-05-09T14:24:14.876Z,96621.00
2019-05-09T14:26:41.115Z,96639.00
2019-05-09T14:29:12.672Z,96632.00
2019-05-09T14:31:41.389Z,96618.00
2019-05-09T14:34:10.681Z,96636.00
2019-05-09T14:36:44.995Z,96639.00
2019-05-09T14:39:11.023Z,96631.00
2019-05-09T14:41:40.325Z,96638.00
2019-05-09T14:44:09.668Z,96662.00
2019-05-09T14:46:39.379Z,96650.00
2019-05-09T14:49:08.692Z,96648.00
2019-05-09T14:51:38.401Z,96663.00
2019-05-09T14:54:08.460Z,96662.00
2019-05-09T14:56:41.964Z,96660.00
2019-05-09T14:59:10.002Z,96667.00
2019-05-09T15:01:43.707Z,96670.00
2019-05-09T15:04:10.822Z,96685.00
2019-05-09T15:06:40.083Z,96689.00
2019-05-09T15:09:09.820Z,96712.00
2019-05-09T15:11:39.832Z,96693.00
2019-05-09T15:14:09.765Z,96690.00
2019-05-09T15:16:39.508Z,96703.00
2019-05-09T15:19:08.798Z,96695.00
2019-05-09T15:21:38.455Z,96701.00
2019-05-09T15:24:09.264Z,96707.00
2019-05-09T15:26:38.825Z,96709.00
2019-05-09T15:29:08.453Z,96705.00
2019-05-09T15:31:39.229Z,96704.00
2019-05-09T15:34:10.382Z,96707.00
2019-05-09T15:36:39.749Z,96701.00
2019-05-09T15:39:09.403Z,96712.00
2019-05-09T15:41:38.808Z,96728.00
2019-05-09T15:44:08.575Z,96719.00
2019-05-09T15:46:45.546Z,96730.00
2019-05-09T15:49:14.817Z,96720.00
2019-05-09T15:51:44.092Z,96725.00
2019-05-09T15:54:13.535Z,96722.00
2019-05-09T15:56:44.210Z,96731.00
2019-05-09T15:59:13.710Z,96745.00
2019-05-09T16:01:43.289Z,96730.00
2019-05-09T16:04:12.908Z,96728.00
2019-05-09T16:06:42.183Z,96734.00
2019-05-09T16:09:12.170Z,96747.00
2019-05-09T16:11:41.922Z,96746.00
2019-05-09T16:14:11.530Z,96749.00
2019-05-09T16:16:41.137Z,96747.00
2019-05-09T16:19:10.683Z,96759.00
2019-05-09T16:21:39.923Z,96761.00
2019-05-09T16:24:09.205Z,96766.00
2019-05-09T16:26:38.621Z,96772.00
2019-05-09T16:29:08.572Z,96775.00
2019-05-09T16:31:38.976Z,96780.00
2019-05-09T16:34:09.527Z,96791.00
2019-05-09T16:36:39.223Z,96791.00
2019-05-09T16:39:08.819Z,96788.00
2019-05-09T16:41:39.205Z,96782.00
2019-05-09T16:44:08.839Z,96786.00
2019-05-09T16:46:38.121Z,96798.00
2019-05-09T16:49:11.606Z,96804.00
2019-05-09T16:51:40.593Z,96800.00
2019-05-09T16:54:09.436Z,96806.00
2019-05-09T16:56:38.704Z,96812.00
2019-05-09T16:59:08.398Z,96816.00
2019-05-09T17:01:39.846Z,96814.00
2019-05-09T17:04:09.421Z,96820.00
2019-05-09T17:06:38.717Z,96826.00
2019-05-09T17:09:11.131Z,96832.00
2019-05-09T17:11:41.607Z,96828.00
2019-05-09T17:14:11.535Z,96835.00
2019-05-09T17:16:41.806Z,96830.00
2019-05-09T17:19:11.362Z,96843.00
2019-05-09T17:21:45.233Z,96839.00
2019-05-09T17:24:21.700Z,96856.00
2019-05-09T17:26:51.250Z,96852.00
2019-05-09T17:29:21.677Z,96838.00
2019-05-09T17:31:51.196Z,96847.00
2019-05-09T17:34:20.471Z,96868.00
2019-05-09T17:36:49.745Z,96917.00
2019-05-09T17:39:19.288Z,96882.00
2019-05-09T17:41:48.560Z,96884.00
2019-05-09T17:44:18.702Z,96892.00
2019-05-09T17:46:48.166Z,96885.00
2019-05-09T17:49:17.630Z,96889.00
2019-05-09T17:51:48.270Z,96897.00
2019-05-09T17:54:18.366Z,96908.00
2019-05-09T17:56:48.391Z,96905.00
2019-05-09T17:59:18.369Z,96909.00
2019-05-09T18:01:48.332Z,96917.00
2019-05-09T18:04:18.126Z,96912.00
2019-05-09T18:06:48.939Z,96917.00
2019-05-09T18:09:19.071Z,96918.00
2019-05-09T18:11:48.496Z,96933.00
2019-05-09T18:14:18.474Z,96922.00
2019-05-09T18:16:48.071Z,96920.00
2019-05-09T18:19:17.952Z,96935.00
2019-05-09T18:21:50.958Z,96944.00
2019-05-09T18:24:18.494Z,96946.00
2019-05-09T18:26:47.766Z,96945.00
2019-05-09T18:29:18.126Z,96945.00
2019-05-09T18:32:01.488Z,96945.00
2019-05-09T18:34:30.776Z,96956.00
2019-05-09T18:37:00.048Z,96956.00
2019-05-09T18:39:29.334Z,96965.00
2019-05-09T18:41:58.611Z,96974.00
2019-05-09T18:44:27.891Z,96973.00
2019-05-09T18:46:57.774Z,96982.00
2019-05-09T18:49:27.228Z,96978.00
2019-05-09T18:52:03.902Z,96982.00
2019-05-09T18:54:27.492Z,96988.00
2019-05-09T18:56:56.771Z,96985.00
2019-05-09T18:59:26.047Z,96991.00
2019-05-09T19:01:55.325Z,97007.00
2019-05-09T19:04:24.598Z,97004.00
2019-05-09T19:06:53.881Z,97005.00
2019-05-09T19:09:23.155Z,97003.00
2019-05-09T19:11:52.566Z,97006.00
2019-05-09T19:14:23.356Z,97006.00
2019-05-09T19:16:57.223Z,97018.00
2019-05-09T19:19:37.104Z,97018.00
2019-05-09T19:22:21.462Z,97018.00
2019-05-09T19:24:38.647Z,97027.00
2019-05-09T19:27:08.255Z,97033.00
2019-05-09T19:29:37.533Z,97034.00
2019-05-09T19:32:06.884Z,97042.00
2019-05-09T19:34:36.168Z,97037.00
2019-05-09T19:37:05.520Z,97040.00
2019-05-09T19:39:34.865Z,97052.00
2019-05-09T19:42:04.144Z,97048.00
2019-05-09T19:44:33.421Z,97056.00
2019-05-09T19:47:02.711Z,97060.00
2019-05-09T19:49:31.984Z,97061.00
2019-05-09T19:52:01.258Z,97065.00
2019-05-09T19:54:30.539Z,97066.00
2019-05-09T19:56:59.810Z,97076.00
2019-05-09T19:59:29.772Z,97081.00
2019-05-09T20:01:59.383Z,97086.00
2019-05-09T20:04:28.667Z,97079.00
2019-05-09T20:06:58.300Z,97094.00
2019-05-09T20:09:35.269Z,97088.00
2019-05-09T20:12:06.735Z,97082.00
2019-05-09T20:14:37.671Z,97093.00
2019-05-09T20:17:07.272Z,97099.00
2019-05-09T20:19:36.904Z,97097.00
2019-05-09T20:22:06.582Z,97107.00
2019-05-09T20:24:35.926Z,97098.00
2019-05-09T20:27:05.502Z,97102.00
2019-05-09T20:29:35.712Z,97106.00
2019-05-09T20:32:05.430Z,97109.00
2019-05-09T20:34:35.072Z,97111.00
2019-05-09T20:37:04.636Z,97120.00
2019-05-09T20:39:34.347Z,97127.00
2019-05-09T20:42:04.160Z,97114.00
2019-05-09T20:44:33.875Z,97128.00
2019-05-09T20:47:03.685Z,97126.00
2019-05-09T20:49:33.504Z,97125.00
2019-05-09T20:52:03.316Z,97124.00
2019-05-09T20:54:33.132Z,97116.00
2019-05-09T20:57:02.599Z,97132.00
2019-05-09T20:59:32.060Z,97131.00
2019-05-09T21:02:01.521Z,97132.00
2019-05-09T21:04:30.991Z,97138.00
2019-05-09T21:07:00.443Z,97139.00
2019-05-09T21:09:29.976Z,97153.00
2019-05-09T21:11:59.446Z,97150.00
2019-05-09T21:14:28.899Z,97157.00
2019-05-09T21:16:58.358Z,97154.00
2019-05-09T21:19:27.823Z,97164.00
2019-05-09T21:21:57.280Z,97161.00
2019-05-09T21:24:26.751Z,97172.00
2019-05-09T21:26:56.210Z,97166.00
2019-05-09T21:29:25.676Z,97167.00
2019-05-09T21:31:55.181Z,97177.00
2019-05-09T21:34:24.905Z,97173.00
2019-05-09T21:36:54.180Z,97179.00
2019-05-09T21:39:23.855Z,97181.00
2019-05-09T21:41:53.418Z,97185.00
2019-05-09T21:44:23.069Z,97193.00
2019-05-09T21:46:52.635Z,97192.00
2019-05-09T21:49:21.914Z,97188.00
2019-05-09T21:51:51.192Z,97190.00
2019-05-09T21:54:20.466Z,97191.00
2019-05-09T21:56:50.037Z,97194.00
2019-05-09T21:59:19.653Z,97198.00
2019-05-09T22:01:49.456Z,97200.00
2019-05-09T22:04:19.068Z,97208.00
2019-05-09T22:06:48.426Z,97213.00
2019-05-09T22:09:17.696Z,97217.00
2019-05-09T22:11:47.274Z,97225.00
2019-05-09T22:14:16.881Z,97226.00
2019-05-09T22:16:47.122Z,97229.00
2019-05-09T22:19:16.391Z,97230.00
2019-05-09T22:21:45.664Z,97238.00
2019-05-09T22:24:15.207Z,97245.00
2019-05-09T22:26:44.817Z,97235.00
2019-05-09T22:29:14.100Z,97231.00
2019-05-09T22:31:43.373Z,97237.00
2019-05-09T22:34:12.920Z,97234.00
2019-05-09T22:36:42.192Z,97242.00
2019-05-09T22:39:11.473Z,97235.00
2019-05-09T22:41:40.744Z,97254.00
2019-05-09T22:44:10.026Z,97243.00
2019-05-09T22:46:39.303Z,97247.00
2019-05-09T22:49:08.581Z,97245.00
2019-05-09T22:51:37.846Z,97247.00
2019-05-09T22:54:12.561Z,97244.00
2019-05-09T22:56:38.120Z,97244.00
2019-05-09T22:59:07.402Z,97252.00
2019-05-09T23:01:36.664Z,97256.00
2019-05-09T23:04:05.942Z,97248.00
2019-05-09T23:06:35.211Z,97243.00
2019-05-09T23:09:06.434Z,97252.00
2019-05-09T23:11:35.709Z,97255.00
2019-05-09T23:14:05.504Z,97259.00
2019-05-09T23:16:36.431Z,97261.00
2019-05-09T23:19:05.699Z,97262.00
2019-05-09T23:21:34.990Z,97264.00
2019-05-09T23:24:05.928Z,97270.00
2019-05-09T23:26:35.180Z,97272.00
2019-05-09T23:29:04.538Z,97264.00
2019-05-09T23:31:37.899Z,97272.00
2019-05-09T23:34:07.173Z,97268.00
2019-05-09T23:36:36.447Z,97276.00
2019-05-09T23:39:11.409Z,97282.00
2019-05-09T23:41:41.033Z,97277.00
2019-05-09T23:44:10.656Z,97281.00
2019-05-09T23:46:39.923Z,97280.00
2019-05-09T23:49:09.552Z,97266.00
2019-05-09T23:51:46.199Z,97283.00
2019-05-09T23:54:46.056Z,97271.00
2019-05-09T23:57:27.720Z,97277.00
